Time,TemperatureF,DewpointF,PressureIn,WindDirection,WindDirectionDegrees,WindSpeedMPH,WindSpeedGustMPH,Humidity,HourlyPrecipIn,Conditions,Clouds,dailyrainin,SolarRadiationWatts/m^2,SoftwareType,DateUTC
2013-07-04 00:02:00,46.0,46.0,-100.00,SSE,161,4.0,7.0,99,0.01,,,0.17,3.600000,,2013-07-04 08:02:00,
2013-07-04 00:11:00,46.0,46.0,-100.00,SSE,161,4.0,7.0,99,0.01,,,0.17,3.600000,,2013-07-04 08:11:00,
2013-07-04 00:21:00,46.0,46.0,-100.00,SSE,161,4.0,7.0,99,0.01,,,0.17,3.600000,,2013-07-04 08:21:00,
2013-07-04 00:53:00,46.0,46.0,-100.00,South,190,4.0,5.0,99,0.06,,,0.22,0.800000,,2013-07-04 08:53:00,
2013-07-04 01:02:00,46.0,46.0,-100.00,South,190,4.0,5.0,99,0.06,,,0.22,0.800000,,2013-07-04 09:02:00,
2013-07-04 01:11:00,46.0,46.0,-100.00,South,190,4.0,5.0,99,0.06,,,0.22,0.800000,,2013-07-04 09:11:00,
2013-07-04 01:22:00,46.0,46.0,-100.00,South,190,4.0,5.0,99,0.06,,,0.22,0.800000,,2013-07-04 09:22:00,
2013-07-04 01:52:00,45.0,45.0,-100.00,South,186,4.0,7.0,99,0.05,,,0.27,0.800000,,2013-07-04 09:52:00,
2013-07-04 02:01:00,45.0,45.0,-100.00,South,186,4.0,7.0,99,0.05,,,0.27,0.800000,,2013-07-04 10:01:00,
2013-07-04 02:11:00,45.0,45.0,-100.00,South,186,4.0,7.0,99,0.05,,,0.27,0.800000,,2013-07-04 10:11:00,
2013-07-04 02:22:00,45.0,45.0,-100.00,South,186,4.0,7.0,99,0.05,,,0.27,0.800000,,2013-07-04 10:22:00,
2013-07-04 02:53:00,45.0,45.0,-100.00,West,275,1.0,8.0,99,0.04,,,0.31,0.800000,,2013-07-04 10:53:00,
2013-07-04 03:02:00,45.0,45.0,-100.00,West,275,1.0,8.0,99,0.04,,,0.31,0.800000,,2013-07-04 11:02:00,
2013-07-04 03:11:00,45.0,45.0,-100.00,West,275,1.0,8.0,99,0.04,,,0.31,0.800000,,2013-07-04 11:11:00,
2013-07-04 03:22:00,45.0,45.0,-100.00,West,275,1.0,8.0,99,0.04,,,0.31,0.800000,,2013-07-04 11:22:00,
2013-07-04 03:53:00,45.0,45.0,-100.00,SSW,206,1.0,5.0,99,0.04,,,0.35,0.800000,,2013-07-04 11:53:00,
2013-07-04 04:01:00,45.0,45.0,-100.00,SSW,206,1.0,5.0,99,0.04,,,0.35,0.800000,,2013-07-04 12:01:00,
2013-07-04 04:11:00,45.0,45.0,-100.00,SSW,206,1.0,5.0,99,0.04,,,0.35,0.800000,,2013-07-04 12:11:00,
2013-07-04 04:22:00,45.0,45.0,-100.00,SSW,206,1.0,5.0,99,0.04,,,0.35,0.800000,,2013-07-04 12:22:00,
2013-07-04 05:02:00,45.0,45.0,-100.00,WSW,253,2.0,4.0,99,0.08,,,0.43,0.800000,,2013-07-04 13:02:00,
2013-07-04 05:11:00,45.0,45.0,-100.00,WSW,253,2.0,4.0,99,0.08,,,0.43,0.800000,,2013-07-04 13:11:00,
2013-07-04 05:22:00,45.0,45.0,-100.00,WSW,253,2.0,4.0,99,0.08,,,0.43,0.800000,,2013-07-04 13:22:00,
2013-07-04 05:53:00,45.0,45.0,-100.00,WSW,240,2.0,6.0,99,0.10,,,0.51,1.100000,,2013-07-04 13:53:00,
2013-07-04 06:02:00,45.0,45.0,-100.00,WSW,240,2.0,6.0,99,0.10,,,0.51,1.100000,,2013-07-04 14:02:00,
2013-07-04 06:11:00,45.0,45.0,-100.00,WSW,240,2.0,6.0,99,0.10,,,0.51,1.100000,,2013-07-04 14:11:00,
2013-07-04 06:22:00,45.0,45.0,-100.00,WSW,240,2.0,6.0,99,0.10,,,0.51,1.100000,,2013-07-04 14:22:00,
2013-07-04 06:53:00,46.0,46.0,-100.00,SSW,195,2.0,5.0,99,0.07,,,0.56,5.300000,,2013-07-04 14:53:00,
2013-07-04 07:02:00,46.0,46.0,-100.00,SSW,195,2.0,5.0,99,0.07,,,0.56,5.300000,,2013-07-04 15:02:00,
2013-07-04 07:11:00,46.0,46.0,-100.00,SSW,195,2.0,5.0,99,0.07,,,0.56,5.300000,,2013-07-04 15:11:00,
2013-07-04 07:23:00,46.0,46.0,-100.00,SSW,195,2.0,5.0,99,0.07,,,0.56,5.300000,,2013-07-04 15:23:00,
2013-07-04 07:52:00,47.0,46.0,-100.00,SSE,166,11.0,11.0,99,0.08,,,0.62,11.400000,,2013-07-04 15:52:00,
2013-07-04 08:02:00,47.0,46.0,-100.00,SSE,166,11.0,11.0,99,0.08,,,0.62,11.400000,,2013-07-04 16:02:00,
2013-07-04 08:11:00,47.0,46.0,-100.00,SSE,166,11.0,11.0,99,0.08,,,0.62,11.400000,,2013-07-04 16:11:00,
2013-07-04 08:22:00,47.0,46.0,-100.00,SSE,166,11.0,11.0,99,0.08,,,0.62,11.400000,,2013-07-04 16:22:00,
2013-07-04 08:52:00,47.0,46.0,-100.00,SSE,156,11.0,20.0,99,0.05,,,0.64,29.299999,,2013-07-04 16:52:00,
2013-07-04 09:01:00,47.0,46.0,-100.00,SSE,156,11.0,20.0,99,0.05,,,0.64,29.299999,,2013-07-04 17:01:00,
2013-07-04 09:11:00,47.0,46.0,-100.00,SSE,156,11.0,20.0,99,0.05,,,0.64,29.299999,,2013-07-04 17:11:00,
2013-07-04 09:22:00,47.0,46.0,-100.00,SSE,156,11.0,20.0,99,0.05,,,0.64,29.299999,,2013-07-04 17:22:00,
2013-07-04 09:53:00,47.0,47.0,-100.00,South,171,8.0,17.0,99,0.02,,,0.65,46.599998,,2013-07-04 17:53:00,
2013-07-04 10:01:00,47.0,47.0,-100.00,South,171,8.0,17.0,99,0.02,,,0.65,46.599998,,2013-07-04 18:01:00,
2013-07-04 10:11:00,47.0,47.0,-100.00,South,171,8.0,17.0,99,0.02,,,0.65,46.599998,,2013-07-04 18:11:00,
2013-07-04 10:22:00,47.0,47.0,-100.00,South,171,8.0,17.0,99,0.02,,,0.65,46.599998,,2013-07-04 18:22:00,
2013-07-04 10:52:00,47.0,47.0,-100.00,South,177,5.0,13.0,99,0.01,,,0.65,63.500000,,2013-07-04 18:52:00,
2013-07-04 11:01:00,47.0,47.0,-100.00,South,177,5.0,13.0,99,0.01,,,0.65,63.500000,,2013-07-04 19:01:00,
2013-07-04 11:11:00,47.0,47.0,-100.00,South,177,5.0,13.0,99,0.01,,,0.65,63.500000,,2013-07-04 19:11:00,
2013-07-04 11:22:00,47.0,47.0,-100.00,South,177,5.0,13.0,99,0.01,,,0.65,63.500000,,2013-07-04 19:22:00,
2013-07-04 11:53:00,48.0,47.0,-100.00,SSW,208,3.0,43.0,98,0.01,,,0.66,125.300003,,2013-07-04 19:53:00,
2013-07-04 12:01:00,48.0,47.0,-100.00,SSW,208,3.0,43.0,98,0.01,,,0.66,125.300003,,2013-07-04 20:01:00,
2013-07-04 12:11:00,48.0,47.0,-100.00,SSW,208,3.0,43.0,98,0.01,,,0.66,125.300003,,2013-07-04 20:11:00,
2013-07-04 12:22:00,48.0,47.0,-100.00,SSW,208,3.0,43.0,98,0.01,,,0.66,125.300003,,2013-07-04 20:22:00,
2013-07-04 12:53:00,49.0,48.0,-100.00,WSW,255,2.0,74.0,98,0.00,,,0.65,180.699997,,2013-07-04 20:53:00,
2013-07-04 13:01:00,49.0,48.0,-100.00,WSW,255,2.0,74.0,98,0.00,,,0.65,180.699997,,2013-07-04 21:01:00,
2013-07-04 13:11:00,49.0,48.0,-100.00,WSW,255,2.0,74.0,98,0.00,,,0.65,180.699997,,2013-07-04 21:11:00,
2013-07-04 13:22:00,49.0,48.0,-100.00,WSW,255,2.0,74.0,98,0.00,,,0.65,180.699997,,2013-07-04 21:22:00,
2013-07-04 13:53:00,50.0,49.0,-100.00,SE,132,2.0,7.0,96,0.01,,,-99.99,265.000000,,2013-07-04 21:53:00,
2013-07-04 14:01:00,50.0,49.0,-100.00,SE,132,2.0,7.0,96,0.01,,,-99.99,265.000000,,2013-07-04 22:01:00,
2013-07-04 14:11:00,50.0,49.0,-100.00,SE,132,2.0,7.0,96,0.01,,,-99.99,265.000000,,2013-07-04 22:11:00,
2013-07-04 14:22:00,50.0,49.0,-100.00,SE,132,2.0,7.0,96,0.01,,,-99.99,265.000000,,2013-07-04 22:22:00,
2013-07-04 14:52:00,49.0,48.0,-100.00,SSE,156,3.0,4.0,97,0.00,,,0.65,252.399994,,2013-07-04 22:52:00,
2013-07-04 15:01:00,49.0,48.0,-100.00,SSE,156,3.0,4.0,97,0.00,,,0.65,252.399994,,2013-07-04 23:01:00,
2013-07-04 15:11:00,49.0,48.0,-100.00,SSE,156,3.0,4.0,97,0.00,,,0.65,252.399994,,2013-07-04 23:11:00,
2013-07-04 15:23:00,49.0,48.0,-100.00,SSE,156,3.0,4.0,97,0.00,,,0.65,252.399994,,2013-07-04 23:23:00,
2013-07-04 15:52:00,47.0,47.0,-100.00,South,169,6.0,11.0,98,0.00,,,0.65,148.399994,,2013-07-04 23:52:00,
2013-07-04 16:01:00,47.0,47.0,-100.00,South,169,6.0,11.0,98,0.00,,,0.65,148.399994,,2013-07-05 00:01:00,
2013-07-04 16:11:00,47.0,47.0,-100.00,South,169,6.0,11.0,98,0.00,,,0.65,148.399994,,2013-07-05 00:11:00,
2013-07-04 16:21:00,47.0,47.0,-100.00,South,169,6.0,11.0,98,0.00,,,0.65,148.399994,,2013-07-05 00:21:00,
2013-07-04 16:52:00,48.0,47.0,-100.00,South,183,4.0,18.0,98,0.01,,,0.66,153.600006,,2013-07-05 00:52:00,
2013-07-04 17:01:00,48.0,47.0,-100.00,South,183,4.0,18.0,98,0.01,,,0.66,153.600006,,2013-07-05 01:01:00,
2013-07-04 17:11:00,48.0,47.0,-100.00,South,183,4.0,18.0,98,0.01,,,0.66,153.600006,,2013-07-05 01:11:00,
2013-07-04 17:21:00,48.0,47.0,-100.00,South,183,4.0,18.0,98,0.01,,,0.66,153.600006,,2013-07-05 01:21:00,
2013-07-04 17:52:00,48.0,48.0,-100.00,SE,142,2.0,11.0,97,0.01,,,0.67,141.500000,,2013-07-05 01:52:00,
2013-07-04 18:02:00,48.0,48.0,-100.00,SE,142,2.0,11.0,97,0.01,,,0.67,141.500000,,2013-07-05 02:02:00,
2013-07-04 18:11:00,48.0,48.0,-100.00,SE,142,2.0,11.0,97,0.01,,,0.67,141.500000,,2013-07-05 02:11:00,
2013-07-04 18:21:00,48.0,48.0,-100.00,SE,142,2.0,11.0,97,0.01,,,0.67,141.500000,,2013-07-05 02:21:00,
2013-07-04 18:52:00,47.0,47.0,-100.00,WSW,247,3.0,4.0,97,0.00,,,0.67,140.699997,,2013-07-05 02:52:00,
2013-07-04 19:02:00,47.0,47.0,-100.00,WSW,247,3.0,4.0,97,0.00,,,0.67,140.699997,,2013-07-05 03:02:00,
2013-07-04 19:11:00,47.0,47.0,-100.00,WSW,247,3.0,4.0,97,0.00,,,0.67,140.699997,,2013-07-05 03:11:00,
2013-07-04 19:21:00,47.0,47.0,-100.00,WSW,247,3.0,4.0,97,0.00,,,0.67,140.699997,,2013-07-05 03:21:00,
2013-07-04 19:52:00,47.0,47.0,-100.00,South,186,0.0,4.0,98,0.01,,,0.68,79.099998,,2013-07-05 03:52:00,
2013-07-04 20:01:00,47.0,47.0,-100.00,South,186,0.0,4.0,98,0.01,,,0.68,79.099998,,2013-07-05 04:01:00,
2013-07-04 20:11:00,47.0,47.0,-100.00,South,186,0.0,4.0,98,0.01,,,0.68,79.099998,,2013-07-05 04:11:00,
2013-07-04 20:21:00,47.0,47.0,-100.00,South,186,0.0,4.0,98,0.01,,,0.68,79.099998,,2013-07-05 04:21:00,
2013-07-04 20:53:00,47.0,46.0,-100.00,WSW,255,1.0,3.0,98,0.01,,,0.69,56.799999,,2013-07-05 04:53:00,
2013-07-04 21:01:00,47.0,46.0,-100.00,WSW,255,1.0,3.0,98,0.01,,,0.69,56.799999,,2013-07-05 05:01:00,
2013-07-04 21:12:00,47.0,46.0,-100.00,WSW,255,1.0,3.0,98,0.01,,,0.69,56.799999,,2013-07-05 05:12:00,
2013-07-04 21:21:00,47.0,46.0,-100.00,WSW,255,1.0,3.0,98,0.01,,,0.69,56.799999,,2013-07-05 05:21:00,
2013-07-04 21:52:00,47.0,46.0,-100.00,NW,307,2.0,3.0,99,0.01,,,-99.99,26.700001,,2013-07-05 05:52:00,
2013-07-04 22:02:00,47.0,46.0,-100.00,NW,307,2.0,3.0,99,0.01,,,-99.99,26.700001,,2013-07-05 06:02:00,
2013-07-04 22:13:00,47.0,46.0,-100.00,NW,307,2.0,3.0,99,0.01,,,-99.99,26.700001,,2013-07-05 06:13:00,
2013-07-04 22:23:00,47.0,46.0,-100.00,NW,307,2.0,3.0,99,0.01,,,-99.99,26.700001,,2013-07-05 06:23:00,
2013-07-04 22:53:00,47.0,46.0,-100.00,WNW,297,2.0,12.0,99,0.03,,,0.71,10.500000,,2013-07-05 06:53:00,
2013-07-04 23:02:00,47.0,46.0,-100.00,WNW,297,2.0,12.0,99,0.03,,,0.71,10.500000,,2013-07-05 07:02:00,
2013-07-04 23:12:00,47.0,46.0,-100.00,WNW,297,2.0,12.0,99,0.03,,,0.71,10.500000,,2013-07-05 07:12:00,
2013-07-04 23:23:00,47.0,46.0,-100.00,WNW,297,2.0,12.0,99,0.03,,,0.71,10.500000,,2013-07-05 07:23:00,
2013-07-04 23:53:00,46.0,46.0,-100.00,NNE,12,2.0,14.0,99,0.03,,,0.73,4.300000,,2013-07-05 07:53:00,